createdAt,value
2022-09-05T00:01:42.205Z,7.26
2022-09-05T00:04:25.221Z,7.24
2022-09-05T00:07:36.049Z,7.23
2022-09-05T00:10:10.161Z,7.21
2022-09-05T00:12:39.192Z,7.20
2022-09-05T00:15:25.220Z,7.16
2022-09-05T00:19:06.571Z,7.12
2022-09-05T00:24:21.408Z,7.10
2022-09-05T00:24:36.407Z,7.07
2022-09-05T00:26:50.454Z,7.03
2022-09-05T00:30:57.322Z,6.99
2022-09-05T00:32:33.222Z,6.95
2022-09-05T00:35:03.325Z,6.95
2022-09-05T00:37:38.809Z,6.95
2022-09-05T00:40:29.124Z,6.94
2022-09-05T00:43:02.568Z,6.90
2022-09-05T00:45:33.204Z,6.88
2022-09-05T00:48:03.544Z,6.85
2022-09-05T00:50:37.659Z,6.83
2022-09-05T00:53:09.420Z,6.80
2022-09-05T00:55:46.963Z,6.79
2022-09-05T00:58:34.109Z,6.79
2022-09-05T01:01:21.061Z,6.79
2022-09-05T01:03:53.672Z,6.77
2022-09-05T01:06:40.031Z,6.73
2022-09-05T01:09:08.445Z,6.70
2022-09-05T01:11:50.704Z,6.65
2022-09-05T01:14:37.593Z,6.62
2022-09-05T01:17:12.307Z,6.59
2022-09-05T01:19:39.670Z,6.55
2022-09-05T01:22:09.892Z,6.51
2022-09-05T01:24:55.502Z,6.50
2022-09-05T01:29:14.990Z,6.48
2022-09-05T01:30:43.215Z,6.44
2022-09-05T01:33:30.779Z,6.41
2022-09-05T01:36:07.344Z,6.39
2022-09-05T01:38:55.330Z,6.37
2022-09-05T01:41:39.919Z,6.36
2022-09-05T01:44:19.349Z,6.34
2022-09-05T01:47:05.561Z,6.31
2022-09-05T01:49:35.047Z,6.30
2022-09-05T01:52:26.400Z,6.29
2022-09-05T01:55:12.095Z,6.29
2022-09-05T01:57:42.658Z,6.28
2022-09-05T02:00:10.058Z,6.30
2022-09-05T02:02:58.985Z,6.36
2022-09-05T02:05:49.204Z,6.45
2022-09-05T02:08:35.649Z,6.52
2022-09-05T02:11:10.662Z,6.52
2022-09-05T02:13:38.697Z,6.52
2022-09-05T02:16:08.938Z,6.51
2022-09-05T02:18:58.377Z,6.47
2022-09-05T02:21:28.783Z,6.43
2022-09-05T02:24:16.421Z,6.40
2022-09-05T02:26:47.013Z,6.43
2022-09-05T02:29:29.169Z,6.46
2022-09-05T02:32:02.437Z,6.51
2022-09-05T02:34:32.609Z,6.57
2022-09-05T02:37:15.103Z,6.64
2022-09-05T02:45:04.248Z,6.72
2022-09-05T02:45:11.751Z,6.89
2022-09-05T02:45:37.062Z,7.08
2022-09-05T02:48:15.532Z,7.21
2022-09-05T02:55:56.086Z,7.31
2022-09-05T02:57:35.597Z,7.41
2022-09-05T02:57:36.861Z,7.36
2022-09-05T02:59:36.786Z,7.01
2022-09-05T03:02:27.094Z,7.66
2022-09-05T03:05:04.854Z,7.78
2022-09-05T03:07:52.000Z,7.90
2022-09-05T03:10:28.201Z,7.98
2022-09-05T03:13:29.225Z,8.09
2022-09-05T03:16:17.047Z,8.19
2022-09-05T03:19:03.109Z,8.27
2022-09-05T03:21:39.961Z,8.33
2022-09-05T03:24:10.380Z,8.40
2022-09-05T03:26:50.572Z,8.45
2022-09-05T03:29:29.962Z,8.50
2022-09-05T03:32:16.472Z,8.58
2022-09-05T03:34:51.608Z,8.63
2022-09-05T03:37:19.095Z,8.70
2022-09-05T03:39:55.541Z,8.75
2022-09-05T03:42:40.260Z,8.80
2022-09-05T03:45:15.037Z,8.85
2022-09-05T03:48:18.750Z,8.92
2022-09-05T03:55:13.519Z,8.99
2022-09-05T03:57:28.000Z,9.07
2022-09-05T03:57:38.541Z,9.12
2022-09-05T04:00:11.427Z,9.17
2022-09-05T04:07:26.982Z,9.19
2022-09-05T04:08:17.615Z,9.23
2022-09-05T04:08:41.811Z,9.30
2022-09-05T04:11:38.052Z,9.35
2022-09-05T04:14:08.466Z,9.41
2022-09-05T04:16:55.240Z,9.49
2022-09-05T04:19:38.949Z,9.53
2022-09-05T04:22:18.619Z,9.64
2022-09-05T04:24:52.025Z,9.78
2022-09-05T04:27:27.822Z,9.87
2022-09-05T04:29:55.212Z,9.95
2022-09-05T04:32:25.667Z,10.03
2022-09-05T04:35:02.274Z,10.08
2022-09-05T04:37:48.957Z,10.14
2022-09-05T04:40:34.613Z,10.19
2022-09-05T04:43:24.768Z,10.20
2022-09-05T04:46:02.060Z,10.25
2022-09-05T04:48:35.040Z,10.29
2022-09-05T04:51:06.274Z,10.39
2022-09-05T04:53:40.177Z,10.56
2022-09-05T04:56:12.693Z,10.64
2022-09-05T04:59:34.297Z,10.71
2022-09-05T05:06:09.094Z,10.91
2022-09-05T05:06:11.748Z,10.80
2022-09-05T05:07:25.255Z,11.23
2022-09-05T05:11:06.135Z,11.60
2022-09-05T05:17:57.804Z,12.06
2022-09-05T05:18:13.757Z,12.58
2022-09-05T05:18:59.584Z,13.13
2022-09-05T05:21:31.668Z,13.73
2022-09-05T05:24:09.046Z,14.23
2022-09-05T05:26:55.925Z,14.73
2022-09-05T05:29:31.703Z,15.09
2022-09-05T05:32:00.687Z,15.60
2022-09-05T05:34:54.417Z,16.49
2022-09-05T05:37:37.476Z,17.41
2022-09-05T05:40:11.036Z,17.59
2022-09-05T05:42:40.116Z,17.34
2022-09-05T05:45:18.186Z,16.94
2022-09-05T05:47:47.880Z,16.50
2022-09-05T05:50:18.485Z,16.20
2022-09-05T05:52:45.813Z,15.97
2022-09-05T05:55:51.465Z,15.79
2022-09-05T05:58:22.734Z,15.54
2022-09-05T06:00:55.944Z,15.52
2022-09-05T06:03:42.502Z,15.55
2022-09-05T06:06:47.388Z,15.63
2022-09-05T06:14:47.950Z,15.89
2022-09-05T06:15:03.768Z,16.23
2022-09-05T06:15:27.739Z,16.59
2022-09-05T06:18:14.598Z,16.99
2022-09-05T06:22:10.315Z,17.72
2022-09-05T06:24:14.382Z,17.91
2022-09-05T06:26:57.189Z,17.60
2022-09-05T06:29:47.064Z,17.29
2022-09-05T06:32:17.902Z,17.11
2022-09-05T06:34:48.131Z,17.13
2022-09-05T06:37:18.963Z,17.24
2022-09-05T06:39:58.677Z,17.47
2022-09-05T06:42:44.655Z,17.88
2022-09-05T06:45:28.982Z,18.37
2022-09-05T06:48:01.391Z,18.87
2022-09-05T06:50:53.237Z,19.03
2022-09-05T06:53:28.848Z,19.02
2022-09-05T06:56:03.702Z,18.96
2022-09-05T06:58:30.800Z,19.38
2022-09-05T07:00:59.394Z,19.78
2022-09-05T07:03:32.451Z,19.73
2022-09-05T07:06:19.531Z,20.23
2022-09-05T07:08:54.118Z,20.40
2022-09-05T07:11:21.474Z,20.47
2022-09-05T07:13:48.802Z,20.77
2022-09-05T07:16:26.636Z,21.45
2022-09-05T07:19:26.361Z,23.83
2022-09-05T07:21:59.699Z,25.04
2022-09-05T07:24:44.199Z,27.56
2022-09-05T07:28:23.578Z,28.37
2022-09-05T07:30:33.937Z,26.51
2022-09-05T07:33:02.634Z,25.74
2022-09-05T07:35:42.315Z,26.13
2022-09-05T07:38:18.426Z,26.44
2022-09-05T07:41:06.015Z,25.53
2022-09-05T07:43:46.641Z,23.98
2022-09-05T07:46:17.376Z,22.78
2022-09-05T07:48:49.111Z,21.78
2022-09-05T07:56:49.330Z,20.59
2022-09-05T07:56:54.388Z,19.41
2022-09-05T07:57:31.244Z,18.40
2022-09-05T08:00:23.084Z,17.60
2022-09-05T08:02:55.247Z,16.88
2022-09-05T08:05:34.582Z,16.38
2022-09-05T08:08:03.127Z,15.89
2022-09-05T08:11:22.243Z,15.55
2022-09-05T08:13:34.274Z,15.32
2022-09-05T08:16:09.984Z,15.02
2022-09-05T08:19:07.012Z,14.85
2022-09-05T08:21:42.466Z,14.77
2022-09-05T08:24:14.374Z,14.74
2022-09-05T08:26:49.877Z,14.81
2022-09-05T08:29:35.921Z,14.97
2022-09-05T08:32:08.886Z,15.24
2022-09-05T08:34:45.179Z,15.71
2022-09-05T08:37:20.925Z,16.33
2022-09-05T08:39:57.521Z,16.78
2022-09-05T08:42:42.625Z,16.89
2022-09-05T08:46:43.695Z,16.81
2022-09-05T08:48:32.793Z,16.64
2022-09-05T08:51:19.786Z,16.54
2022-09-05T08:53:55.988Z,16.59
2022-09-05T08:56:39.112Z,16.77
2022-09-05T08:59:31.725Z,16.91
2022-09-05T09:02:44.623Z,17.06
2022-09-05T09:05:14.281Z,17.15
2022-09-05T09:07:51.001Z,16.86
2022-09-05T09:10:35.051Z,16.63
2022-09-05T09:13:05.336Z,16.52
2022-09-05T09:15:47.892Z,16.49
2022-09-05T09:18:16.741Z,16.51
2022-09-05T09:20:55.887Z,16.55
2022-09-05T09:23:40.176Z,16.56
2022-09-05T09:26:15.901Z,16.59
2022-09-05T09:28:51.047Z,16.64
2022-09-05T09:31:28.567Z,16.73
2022-09-05T09:34:04.981Z,16.81
2022-09-05T09:36:52.404Z,16.92
2022-09-05T09:39:38.268Z,17.04
2022-09-05T09:42:09.709Z,17.17
2022-09-05T09:44:50.359Z,17.37
2022-09-05T09:47:22.388Z,17.54
2022-09-05T09:49:49.607Z,17.51
2022-09-05T09:52:20.646Z,17.25
2022-09-05T09:54:48.310Z,16.94
2022-09-05T09:57:37.389Z,16.64
2022-09-05T10:00:21.566Z,16.30
2022-09-05T10:06:30.198Z,16.13
2022-09-05T10:10:35.469Z,16.16
2022-09-05T10:11:09.344Z,16.33
2022-09-05T10:11:56.710Z,16.50
2022-09-05T10:14:45.038Z,16.50
2022-09-05T10:17:12.127Z,16.30
2022-09-05T10:22:36.690Z,15.60
2022-09-05T10:25:18.685Z,15.37
2022-09-05T10:28:00.785Z,15.34
2022-09-05T10:32:10.336Z,15.47
2022-09-05T10:35:17.698Z,15.60
2022-09-05T10:36:32.245Z,15.51
2022-09-05T10:39:15.223Z,15.37
2022-09-05T10:41:52.631Z,15.19
2022-09-05T10:44:41.243Z,14.98
2022-09-05T10:47:24.795Z,14.80
2022-09-05T10:50:06.000Z,14.66
2022-09-05T10:52:57.827Z,14.58
2022-09-05T10:55:43.622Z,14.48
2022-09-05T10:59:38.729Z,14.42
2022-09-05T11:02:29.621Z,14.50
2022-09-05T11:04:27.849Z,14.71
2022-09-05T11:07:04.985Z,14.90
2022-09-05T11:09:41.716Z,15.03
2022-09-05T11:12:28.478Z,15.20
2022-09-05T11:14:57.497Z,15.38
2022-09-05T11:17:24.762Z,15.56
2022-09-05T11:20:16.296Z,15.74
2022-09-05T11:22:58.111Z,15.90
2022-09-05T11:25:40.157Z,16.07
2022-09-05T11:28:15.224Z,16.03
2022-09-05T11:30:46.294Z,15.86
2022-09-05T11:39:55.601Z,15.60
2022-09-05T11:39:58.915Z,15.71
2022-09-05T11:40:10.360Z,15.59
2022-09-05T11:42:10.806Z,15.80
2022-09-05T11:44:38.380Z,16.09
2022-09-05T11:47:28.476Z,16.39
2022-09-05T11:49:56.358Z,16.56
2022-09-05T11:52:40.904Z,16.58
2022-09-05T11:55:23.826Z,16.54
2022-09-05T11:57:50.909Z,16.49
2022-09-05T12:00:33.643Z,16.37
2022-09-05T12:03:57.158Z,16.34
2022-09-05T12:06:09.718Z,16.37
2022-09-05T12:09:01.660Z,16.42
2022-09-05T12:11:43.363Z,16.52
2022-09-05T12:14:29.841Z,16.64
2022-09-05T12:17:03.420Z,16.84
2022-09-05T12:19:40.545Z,17.02
2022-09-05T12:22:26.908Z,17.08
2022-09-05T12:25:15.424Z,17.14
2022-09-05T12:27:50.894Z,17.23
2022-09-05T12:31:28.280Z,17.21
2022-09-05T12:36:01.484Z,17.07
2022-09-05T12:40:53.800Z,16.96
2022-09-05T12:41:33.231Z,16.84
2022-09-05T12:42:31.897Z,16.69
2022-09-05T12:45:30.465Z,16.64
2022-09-05T12:48:07.809Z,16.53
2022-09-05T12:50:35.363Z,16.48
2022-09-05T12:53:09.296Z,16.39
2022-09-05T12:55:41.603Z,16.33
2022-09-05T13:02:58.281Z,16.28
2022-09-05T13:03:14.548Z,16.27
2022-09-05T13:04:23.933Z,16.24
2022-09-05T13:06:58.644Z,16.21
2022-09-05T13:09:30.861Z,16.16
2022-09-05T13:14:57.929Z,16.06
2022-09-05T13:15:23.241Z,15.85
2022-09-05T13:17:54.745Z,15.71
2022-09-05T13:20:22.179Z,15.73
2022-09-05T13:22:52.320Z,15.82
2022-09-05T13:25:29.954Z,15.98
2022-09-05T13:28:03.936Z,15.86
2022-09-05T13:34:19.949Z,15.54
2022-09-05T13:38:07.413Z,15.09
2022-09-05T13:38:07.594Z,15.32
2022-09-05T13:39:28.384Z,14.87
2022-09-05T13:41:59.773Z,14.77
2022-09-05T13:44:28.350Z,14.69
2022-09-05T13:47:29.114Z,14.65
2022-09-05T13:49:53.869Z,14.58
2022-09-05T13:52:28.267Z,14.52
2022-09-05T13:54:55.275Z,14.43
2022-09-05T13:57:41.403Z,14.31
2022-09-05T14:00:27.048Z,14.21
2022-09-05T14:03:32.061Z,14.16
2022-09-05T14:06:47.812Z,14.09
2022-09-05T14:09:37.294Z,14.06
2022-09-05T14:12:11.699Z,14.03
2022-09-05T14:17:51.921Z,13.96
2022-09-05T14:20:38.653Z,13.92
2022-09-05T14:23:15.241Z,13.89
2022-09-05T14:25:44.759Z,13.87
2022-09-05T14:28:18.357Z,13.81
2022-09-05T14:33:59.626Z,13.79
2022-09-05T14:37:40.130Z,13.68
2022-09-05T14:37:43.459Z,13.75
2022-09-05T14:39:42.126Z,13.62
2022-09-05T14:42:19.883Z,13.55
2022-09-05T14:45:19.586Z,13.50
2022-09-05T14:48:13.289Z,13.45
2022-09-05T14:50:40.675Z,13.45
2022-09-05T14:56:02.822Z,13.01
2022-09-05T15:02:49.658Z,13.29
2022-09-05T15:02:52.509Z,13.22
2022-09-05T15:04:40.955Z,13.21
2022-09-05T15:07:19.067Z,13.13
2022-09-05T15:12:16.060Z,13.08
2022-09-05T15:12:45.468Z,13.02
2022-09-05T15:15:25.762Z,13.00
2022-09-05T15:17:56.009Z,12.94
2022-09-05T15:20:28.213Z,12.88
2022-09-05T15:22:57.558Z,12.85
2022-09-05T15:25:26.410Z,12.73
2022-09-05T15:27:54.856Z,12.68
2022-09-05T15:30:34.706Z,12.59
2022-09-05T15:33:25.441Z,12.55
2022-09-05T15:35:53.640Z,12.45
2022-09-05T15:38:27.198Z,12.38
2022-09-05T15:41:02.844Z,12.32
2022-09-05T15:43:30.630Z,12.24
2022-09-05T15:46:02.883Z,12.19
2022-09-05T15:48:33.979Z,12.14
2022-09-05T15:51:07.600Z,12.11
2022-09-05T15:53:37.254Z,12.04
2022-09-05T15:56:10.567Z,12.00
2022-09-05T15:58:53.102Z,11.93
2022-09-05T16:01:58.934Z,11.85
2022-09-05T16:08:21.765Z,11.74
2022-09-05T16:10:42.749Z,11.56
2022-09-05T16:10:48.349Z,11.45
2022-09-05T16:12:47.539Z,11.33
2022-09-05T16:23:13.232Z,11.26
2022-09-05T16:23:13.618Z,11.17
2022-09-05T16:23:37.334Z,11.12
2022-09-05T16:24:18.750Z,11.09
2022-09-05T16:27:03.907Z,11.08
2022-09-05T16:29:32.803Z,11.06
2022-09-05T16:31:59.952Z,11.09
2022-09-05T16:34:27.254Z,11.07
2022-09-05T16:37:08.195Z,11.08
2022-09-05T16:39:39.044Z,10.61
2022-09-05T16:42:47.027Z,11.17
2022-09-05T16:45:22.086Z,11.18
2022-09-05T16:47:52.403Z,11.18
2022-09-05T16:50:34.175Z,11.18
2022-09-05T16:53:05.429Z,11.19
2022-09-05T16:55:58.316Z,11.22
2022-09-05T16:58:37.474Z,11.23
2022-09-05T17:01:08.560Z,11.23
2022-09-05T17:03:41.785Z,11.24
2022-09-05T17:06:26.071Z,11.26
2022-09-05T17:09:03.220Z,11.31
2022-09-05T17:12:00.331Z,11.35
2022-09-05T17:14:36.312Z,11.39
2022-09-05T17:18:12.790Z,11.38
2022-09-05T17:20:08.125Z,11.36
2022-09-05T17:26:46.900Z,11.38
2022-09-05T17:29:19.063Z,11.42
2022-09-05T17:29:30.256Z,11.41
2022-09-05T17:31:53.620Z,11.40
2022-09-05T17:34:34.997Z,11.37
2022-09-05T17:37:04.681Z,11.31
2022-09-05T17:39:44.736Z,11.22
2022-09-05T17:42:29.786Z,11.06
2022-09-05T17:45:20.244Z,10.96
2022-09-05T17:47:49.564Z,10.88
2022-09-05T17:50:28.130Z,10.83
2022-09-05T17:53:24.912Z,10.76
2022-09-05T17:55:52.689Z,10.67
2022-09-05T17:58:22.401Z,10.59
2022-09-05T18:00:52.651Z,10.54
2022-09-05T18:03:38.994Z,10.58
2022-09-05T18:06:15.272Z,10.60
2022-09-05T18:08:45.421Z,10.57
2022-09-05T18:11:27.711Z,10.59
2022-09-05T18:14:02.964Z,10.63
2022-09-05T18:16:43.351Z,10.65
2022-09-05T18:20:06.579Z,10.66
2022-09-05T18:22:36.247Z,10.63
2022-09-05T18:25:15.696Z,10.55
2022-09-05T18:28:04.693Z,10.56
2022-09-05T18:33:55.946Z,10.56
2022-09-05T18:35:55.884Z,10.53
2022-09-05T18:38:50.939Z,10.46
2022-09-05T18:41:18.746Z,10.34
2022-09-05T18:44:12.609Z,10.31
2022-09-05T18:46:42.569Z,10.29
2022-09-05T18:50:19.308Z,10.29
2022-09-05T18:52:07.872Z,10.25
2022-09-05T18:54:36.235Z,10.24
2022-09-05T18:57:28.610Z,10.26
2022-09-05T19:00:03.442Z,10.28
2022-09-05T19:02:50.311Z,10.31
2022-09-05T19:05:43.727Z,10.27
2022-09-05T19:08:28.751Z,10.27
2022-09-05T19:10:58.865Z,10.32
2022-09-05T19:13:40.351Z,10.33
2022-09-05T19:16:42.372Z,10.29
2022-09-05T19:19:08.799Z,10.33
2022-09-05T19:21:39.200Z,10.36
2022-09-05T19:24:10.129Z,10.43
2022-09-05T19:26:37.534Z,10.50
2022-09-05T19:35:50.097Z,10.53
2022-09-05T19:37:09.437Z,10.55
2022-09-05T19:37:12.520Z,10.55
2022-09-05T19:37:47.888Z,10.52
2022-09-05T19:45:55.837Z,10.48
2022-09-05T19:47:35.920Z,10.49
2022-09-05T19:47:41.505Z,10.50
2022-09-05T19:49:04.125Z,10.51
2022-09-05T19:51:31.294Z,10.53
2022-09-05T19:54:04.445Z,10.56
2022-09-05T19:56:35.802Z,10.60
2022-09-05T19:59:14.579Z,10.64
2022-09-05T20:01:43.199Z,10.63
2022-09-05T20:04:16.539Z,10.60
2022-09-05T20:06:44.002Z,10.53
2022-09-05T20:09:14.643Z,10.49
2022-09-05T20:11:46.745Z,10.49
2022-09-05T20:14:18.843Z,10.51
2022-09-05T20:16:49.708Z,10.56
2022-09-05T20:19:28.316Z,10.61
2022-09-05T20:21:58.455Z,10.62
2022-09-05T20:24:25.851Z,10.62
2022-09-05T20:26:53.445Z,10.61
2022-09-05T20:29:43.469Z,10.55
2022-09-05T20:32:18.714Z,10.52
2022-09-05T20:37:00.880Z,10.44
2022-09-05T20:43:23.243Z,9.86
2022-09-05T20:43:31.117Z,10.28
2022-09-05T20:43:52.478Z,10.28
2022-09-05T20:48:58.796Z,10.31
2022-09-05T20:54:18.399Z,10.36
2022-09-05T20:54:21.347Z,10.33
2022-09-05T20:55:38.618Z,10.36
2022-09-05T20:58:10.591Z,10.35
2022-09-05T21:00:41.716Z,10.38
2022-09-05T21:03:38.126Z,10.36
2022-09-05T21:06:20.222Z,10.34
2022-09-05T21:08:48.128Z,10.25
2022-09-05T21:11:15.607Z,10.19
2022-09-05T21:13:52.421Z,10.14
2022-09-05T21:16:27.796Z,10.11
2022-09-05T21:18:55.321Z,10.15
2022-09-05T21:21:28.799Z,10.14
2022-09-05T21:24:05.251Z,10.20
2022-09-05T21:26:44.192Z,10.23
2022-09-05T21:29:11.582Z,10.18
2022-09-05T21:31:46.017Z,10.06
2022-09-05T21:34:35.737Z,10.02
2022-09-05T21:37:07.233Z,10.01
2022-09-05T21:39:37.977Z,10.00
2022-09-05T21:43:40.862Z,9.94
2022-09-05T21:47:39.035Z,9.88
2022-09-05T21:47:52.055Z,9.82
2022-09-05T21:50:31.241Z,9.85
2022-09-05T21:53:13.181Z,9.92
2022-09-05T21:59:17.169Z,10.00
2022-09-05T21:59:25.012Z,9.97
2022-09-05T22:01:44.644Z,9.97
2022-09-05T22:04:12.301Z,10.00
2022-09-05T22:06:39.816Z,10.05
2022-09-05T22:09:12.889Z,10.08
2022-09-05T22:11:41.451Z,10.08
2022-09-05T22:14:09.280Z,9.99
2022-09-05T22:16:40.031Z,9.92
2022-09-05T22:19:13.013Z,9.91
2022-09-05T22:21:40.853Z,9.91
2022-09-05T22:24:09.655Z,9.87
2022-09-05T22:26:40.415Z,9.83
2022-09-05T22:29:27.352Z,9.72
2022-09-05T22:31:55.411Z,9.69
2022-09-05T22:34:22.694Z,9.64
2022-09-05T22:36:51.039Z,9.64
2022-09-05T22:39:27.367Z,9.64
2022-09-05T22:42:09.939Z,9.69
2022-09-05T22:44:39.251Z,9.75
2022-09-05T22:47:09.882Z,9.74
2022-09-05T22:49:37.100Z,9.69
2022-09-05T22:52:05.885Z,9.72
2022-09-05T22:54:33.407Z,9.77
2022-09-05T22:57:00.569Z,9.81
2022-09-05T22:59:27.786Z,9.83
2022-09-05T23:01:55.158Z,9.86
2022-09-05T23:04:23.669Z,9.86
2022-09-05T23:06:50.988Z,9.85
2022-09-05T23:09:18.094Z,9.80
2022-09-05T23:11:45.303Z,9.76
2022-09-05T23:14:12.627Z,9.73
2022-09-05T23:16:39.792Z,9.71
2022-09-05T23:19:06.930Z,9.68
2022-09-05T23:21:34.365Z,9.59
2022-09-05T23:24:01.461Z,9.48
2022-09-05T23:26:28.683Z,9.39
2022-09-05T23:28:56.123Z,9.39
2022-09-05T23:31:23.537Z,9.47
2022-09-05T23:33:52.065Z,9.51
2022-09-05T23:36:19.684Z,9.55
2022-09-05T23:38:47.136Z,9.52
2022-09-05T23:41:14.928Z,9.54
2022-09-05T23:43:42.440Z,9.58
2022-09-05T23:46:09.956Z,9.49
2022-09-05T23:48:37.053Z,9.41
2022-09-05T23:51:06.975Z,9.35
2022-09-05T23:53:34.506Z,9.36
2022-09-05T23:56:05.742Z,9.34
2022-09-05T23:58:33.664Z,9.30
